sensor_id;sensor_type;location;lat;lon;timestamp;temperature;humidity
70368;DHT22;57789;53.868;10.728;2022-09-21T00:01:28;7.50;99.90
70368;DHT22;57789;53.868;10.728;2022-09-21T00:04:02;7.60;99.90
70368;DHT22;57789;53.868;10.728;2022-09-21T00:06:30;7.60;99.90
70368;DHT22;57789;53.868;10.728;2022-09-21T00:08:56;7.60;99.90
70368;DHT22;57789;53.868;10.728;2022-09-21T00:11:24;7.60;99.90
70368;DHT22;57789;53.868;10.728;2022-09-21T00:13:55;7.70;99.90
70368;DHT22;57789;53.868;10.728;2022-09-21T00:16:24;7.60;99.90
70368;DHT22;57789;53.868;10.728;2022-09-21T00:18:50;7.50;99.90
70368;DHT22;57789;53.868;10.728;2022-09-21T00:21:16;7.50;99.90
70368;DHT22;57789;53.868;10.728;2022-09-21T00:23:43;7.60;99.90
70368;DHT22;57789;53.868;10.728;2022-09-21T00:26:10;7.60;99.90
70368;DHT22;57789;53.868;10.728;2022-09-21T00:28:36;7.60;99.90
70368;DHT22;57789;53.868;10.728;2022-09-21T00:31:08;7.60;99.90
70368;DHT22;57789;53.868;10.728;2022-09-21T00:33:35;7.50;99.90
70368;DHT22;57789;53.868;10.728;2022-09-21T00:36:06;7.60;99.90
70368;DHT22;57789;53.868;10.728;2022-09-21T00:38:33;7.60;99.90
70368;DHT22;57789;53.868;10.728;2022-09-21T00:40:59;7.60;99.90
70368;DHT22;57789;53.868;10.728;2022-09-21T00:43:25;7.60;99.90
70368;DHT22;57789;53.868;10.728;2022-09-21T00:45:59;7.60;99.90
70368;DHT22;57789;53.868;10.728;2022-09-21T00:48:26;7.60;99.90
70368;DHT22;57789;53.868;10.728;2022-09-21T00:50:53;7.60;99.90
70368;DHT22;57789;53.868;10.728;2022-09-21T00:53:30;7.40;99.90
70368;DHT22;57789;53.868;10.728;2022-09-21T00:55:57;7.30;99.90
70368;DHT22;57789;53.868;10.728;2022-09-21T00:58:29;7.30;99.90
70368;DHT22;57789;53.868;10.728;2022-09-21T01:00:57;7.40;99.90
70368;DHT22;57789;53.868;10.728;2022-09-21T01:03:24;7.40;99.90
70368;DHT22;57789;53.868;10.728;2022-09-21T01:05:50;7.50;99.90
70368;DHT22;57789;53.868;10.728;2022-09-21T01:08:17;7.60;99.90
70368;DHT22;57789;53.868;10.728;2022-09-21T01:11:16;7.60;99.90
70368;DHT22;57789;53.868;10.728;2022-09-21T01:19:23;7.70;99.90
70368;DHT22;57789;53.868;10.728;2022-09-21T01:30:10;7.50;99.90
70368;DHT22;57789;53.868;10.728;2022-09-21T01:35:32;7.50;99.90
70368;DHT22;57789;53.868;10.728;2022-09-21T01:38:07;7.40;99.90
70368;DHT22;57789;53.868;10.728;2022-09-21T01:40:38;7.50;99.90
70368;DHT22;57789;53.868;10.728;2022-09-21T01:43:12;7.50;99.90
70368;DHT22;57789;53.868;10.728;2022-09-21T01:45:46;7.40;99.90
70368;DHT22;57789;53.868;10.728;2022-09-21T01:48:14;7.40;99.90
70368;DHT22;57789;53.868;10.728;2022-09-21T01:50:52;7.30;99.90
70368;DHT22;57789;53.868;10.728;2022-09-21T01:56:05;7.00;99.90
70368;DHT22;57789;53.868;10.728;2022-09-21T01:58:47;7.00;99.90
70368;DHT22;57789;53.868;10.728;2022-09-21T02:01:18;7.00;99.90
70368;DHT22;57789;53.868;10.728;2022-09-21T02:04:12;7.00;99.90
70368;DHT22;57789;53.868;10.728;2022-09-21T02:06:41;7.10;99.90
70368;DHT22;57789;53.868;10.728;2022-09-21T02:09:17;7.00;99.90
70368;DHT22;57789;53.868;10.728;2022-09-21T02:11:49;7.10;99.90
70368;DHT22;57789;53.868;10.728;2022-09-21T02:14:19;7.00;99.90
70368;DHT22;57789;53.868;10.728;2022-09-21T02:17:20;7.00;99.90
70368;DHT22;57789;53.868;10.728;2022-09-21T02:20:29;6.90;99.90
70368;DHT22;57789;53.868;10.728;2022-09-21T02:23:23;6.90;99.90
70368;DHT22;57789;53.868;10.728;2022-09-21T02:26:08;6.90;99.90
70368;DHT22;57789;53.868;10.728;2022-09-21T02:28:42;6.80;99.90
70368;DHT22;57789;53.868;10.728;2022-09-21T02:34:09;6.80;99.90
70368;DHT22;57789;53.868;10.728;2022-09-21T02:39:11;6.60;99.90
70368;DHT22;57789;53.868;10.728;2022-09-21T02:42:36;6.70;99.90
70368;DHT22;57789;53.868;10.728;2022-09-21T02:44:38;6.70;99.90
70368;DHT22;57789;53.868;10.728;2022-09-21T02:47:32;6.70;99.90
70368;DHT22;57789;53.868;10.728;2022-09-21T02:50:14;6.60;99.90
70368;DHT22;57789;53.868;10.728;2022-09-21T02:52:42;6.40;99.90
70368;DHT22;57789;53.868;10.728;2022-09-21T02:55:10;6.30;99.90
70368;DHT22;57789;53.868;10.728;2022-09-21T02:57:37;6.10;99.90
70368;DHT22;57789;53.868;10.728;2022-09-21T03:00:07;6.20;99.90
70368;DHT22;57789;53.868;10.728;2022-09-21T03:02:42;6.30;99.90
70368;DHT22;57789;53.868;10.728;2022-09-21T03:05:11;6.40;99.90
70368;DHT22;57789;53.868;10.728;2022-09-21T03:07:38;6.50;99.90
70368;DHT22;57789;53.868;10.728;2022-09-21T03:10:07;6.50;99.90
70368;DHT22;57789;53.868;10.728;2022-09-21T03:12:33;6.60;99.90
70368;DHT22;57789;53.868;10.728;2022-09-21T03:15:00;6.50;99.90
70368;DHT22;57789;53.868;10.728;2022-09-21T03:17:26;6.40;99.90
70368;DHT22;57789;53.868;10.728;2022-09-21T03:19:52;6.50;99.90
70368;DHT22;57789;53.868;10.728;2022-09-21T03:22:21;6.50;99.90
70368;DHT22;57789;53.868;10.728;2022-09-21T03:24:50;6.40;99.90
70368;DHT22;57789;53.868;10.728;2022-09-21T03:27:19;6.20;99.90
70368;DHT22;57789;53.868;10.728;2022-09-21T03:29:46;6.30;99.90
70368;DHT22;57789;53.868;10.728;2022-09-21T03:32:17;6.10;99.90
70368;DHT22;57789;53.868;10.728;2022-09-21T03:34:43;6.00;99.90
70368;DHT22;57789;53.868;10.728;2022-09-21T03:37:12;5.90;99.90
70368;DHT22;57789;53.868;10.728;2022-09-21T03:39:47;5.70;99.90
70368;DHT22;57789;53.868;10.728;2022-09-21T03:42:19;5.60;99.90
70368;DHT22;57789;53.868;10.728;2022-09-21T03:44:49;5.90;99.90
70368;DHT22;57789;53.868;10.728;2022-09-21T03:47:15;6.10;99.90
70368;DHT22;57789;53.868;10.728;2022-09-21T03:50:01;6.10;99.90
70368;DHT22;57789;53.868;10.728;2022-09-21T03:52:32;5.90;99.90
70368;DHT22;57789;53.868;10.728;2022-09-21T03:55:03;5.90;99.90
70368;DHT22;57789;53.868;10.728;2022-09-21T03:57:35;6.00;99.90
70368;DHT22;57789;53.868;10.728;2022-09-21T04:00:06;6.10;99.90
70368;DHT22;57789;53.868;10.728;2022-09-21T04:02:37;6.10;99.90
70368;DHT22;57789;53.868;10.728;2022-09-21T04:05:12;6.00;99.90
70368;DHT22;57789;53.868;10.728;2022-09-21T04:07:42;5.80;99.90
70368;DHT22;57789;53.868;10.728;2022-09-21T04:10:12;5.70;99.90
70368;DHT22;57789;53.868;10.728;2022-09-21T04:12:40;5.70;99.90
70368;DHT22;57789;53.868;10.728;2022-09-21T04:15:15;5.70;99.90
70368;DHT22;57789;53.868;10.728;2022-09-21T04:17:44;5.70;99.90
70368;DHT22;57789;53.868;10.728;2022-09-21T04:20:10;5.80;99.90
70368;DHT22;57789;53.868;10.728;2022-09-21T04:22:36;5.80;99.90
70368;DHT22;57789;53.868;10.728;2022-09-21T04:25:04;5.80;99.90
70368;DHT22;57789;53.868;10.728;2022-09-21T04:27:36;5.80;99.90
70368;DHT22;57789;53.868;10.728;2022-09-21T04:30:05;5.70;99.90
70368;DHT22;57789;53.868;10.728;2022-09-21T04:32:35;5.70;99.90
70368;DHT22;57789;53.868;10.728;2022-09-21T04:35:01;5.70;99.90
70368;DHT22;57789;53.868;10.728;2022-09-21T04:37:31;5.60;99.90
70368;DHT22;57789;53.868;10.728;2022-09-21T04:39:57;5.40;99.90
70368;DHT22;57789;53.868;10.728;2022-09-21T04:42:23;5.40;99.90
70368;DHT22;57789;53.868;10.728;2022-09-21T04:44:52;5.50;99.90
70368;DHT22;57789;53.868;10.728;2022-09-21T04:47:18;5.70;99.90
70368;DHT22;57789;53.868;10.728;2022-09-21T04:49:50;5.80;99.90
70368;DHT22;57789;53.868;10.728;2022-09-21T04:52:18;5.80;99.90
70368;DHT22;57789;53.868;10.728;2022-09-21T04:54:45;5.70;99.90
70368;DHT22;57789;53.868;10.728;2022-09-21T04:57:14;5.60;99.90
70368;DHT22;57789;53.868;10.728;2022-09-21T04:59:42;5.50;99.90
70368;DHT22;57789;53.868;10.728;2022-09-21T05:02:10;5.60;99.90
70368;DHT22;57789;53.868;10.728;2022-09-21T05:04:39;5.60;99.90
70368;DHT22;57789;53.868;10.728;2022-09-21T05:07:09;5.70;99.90
70368;DHT22;57789;53.868;10.728;2022-09-21T05:09:38;5.60;99.90
70368;DHT22;57789;53.868;10.728;2022-09-21T05:12:34;5.70;99.90
70368;DHT22;57789;53.868;10.728;2022-09-21T05:15:12;5.70;99.90
70368;DHT22;57789;53.868;10.728;2022-09-21T05:17:41;5.60;99.90
70368;DHT22;57789;53.868;10.728;2022-09-21T05:20:09;5.40;99.90
70368;DHT22;57789;53.868;10.728;2022-09-21T05:22:38;5.30;99.90
70368;DHT22;57789;53.868;10.728;2022-09-21T05:25:12;5.40;99.90
70368;DHT22;57789;53.868;10.728;2022-09-21T05:27:41;5.50;99.90
70368;DHT22;57789;53.868;10.728;2022-09-21T05:30:07;5.60;99.90
70368;DHT22;57789;53.868;10.728;2022-09-21T05:32:57;5.70;99.90
70368;DHT22;57789;53.868;10.728;2022-09-21T05:35:39;5.80;99.90
70368;DHT22;57789;53.868;10.728;2022-09-21T05:38:26;5.90;99.90
70368;DHT22;57789;53.868;10.728;2022-09-21T05:40:59;6.00;99.90
70368;DHT22;57789;53.868;10.728;2022-09-21T05:43:27;6.00;99.90
70368;DHT22;57789;53.868;10.728;2022-09-21T05:46:06;5.90;99.90
70368;DHT22;57789;53.868;10.728;2022-09-21T05:48:58;5.80;99.90
70368;DHT22;57789;53.868;10.728;2022-09-21T05:57:21;5.60;99.90
70368;DHT22;57789;53.868;10.728;2022-09-21T06:05:47;5.50;99.90
70368;DHT22;57789;53.868;10.728;2022-09-21T06:08:17;5.50;99.90
70368;DHT22;57789;53.868;10.728;2022-09-21T06:10:44;5.60;99.90
70368;DHT22;57789;53.868;10.728;2022-09-21T06:13:24;5.60;99.90
70368;DHT22;57789;53.868;10.728;2022-09-21T06:15:53;5.70;99.90
70368;DHT22;57789;53.868;10.728;2022-09-21T06:18:23;5.80;99.90
70368;DHT22;57789;53.868;10.728;2022-09-21T06:20:48;5.80;99.90
70368;DHT22;57789;53.868;10.728;2022-09-21T06:23:14;5.90;99.90
70368;DHT22;57789;53.868;10.728;2022-09-21T06:25:49;6.00;99.90
70368;DHT22;57789;53.868;10.728;2022-09-21T06:28:19;6.10;99.90
70368;DHT22;57789;53.868;10.728;2022-09-21T06:30:50;6.30;99.90
70368;DHT22;57789;53.868;10.728;2022-09-21T06:33:16;6.40;99.90
70368;DHT22;57789;53.868;10.728;2022-09-21T06:35:56;6.60;99.90
70368;DHT22;57789;53.868;10.728;2022-09-21T06:38:23;6.60;99.90
70368;DHT22;57789;53.868;10.728;2022-09-21T06:40:50;6.80;99.90
70368;DHT22;57789;53.868;10.728;2022-09-21T06:43:16;6.90;99.90
70368;DHT22;57789;53.868;10.728;2022-09-21T06:46:09;7.10;99.90
70368;DHT22;57789;53.868;10.728;2022-09-21T06:48:38;7.30;99.90
70368;DHT22;57789;53.868;10.728;2022-09-21T06:51:05;7.40;99.90
70368;DHT22;57789;53.868;10.728;2022-09-21T06:53:35;7.60;99.90
70368;DHT22;57789;53.868;10.728;2022-09-21T06:56:16;7.70;99.90
70368;DHT22;57789;53.868;10.728;2022-09-21T06:58:46;7.90;99.90
70368;DHT22;57789;53.868;10.728;2022-09-21T07:01:14;8.00;99.90
70368;DHT22;57789;53.868;10.728;2022-09-21T07:03:51;8.10;99.90
70368;DHT22;57789;53.868;10.728;2022-09-21T07:06:19;8.20;99.90
70368;DHT22;57789;53.868;10.728;2022-09-21T07:08:50;8.40;99.90
70368;DHT22;57789;53.868;10.728;2022-09-21T07:11:17;8.50;99.90
70368;DHT22;57789;53.868;10.728;2022-09-21T07:13:48;8.70;99.90
70368;DHT22;57789;53.868;10.728;2022-09-21T07:16:18;8.90;99.90
70368;DHT22;57789;53.868;10.728;2022-09-21T07:18:44;9.00;99.90
70368;DHT22;57789;53.868;10.728;2022-09-21T07:21:11;9.20;99.90
70368;DHT22;57789;53.868;10.728;2022-09-21T07:23:39;9.30;99.90
70368;DHT22;57789;53.868;10.728;2022-09-21T07:26:08;9.40;99.90
70368;DHT22;57789;53.868;10.728;2022-09-21T07:28:34;9.60;99.90
70368;DHT22;57789;53.868;10.728;2022-09-21T07:31:13;9.70;99.90
70368;DHT22;57789;53.868;10.728;2022-09-21T07:33:41;9.90;99.90
70368;DHT22;57789;53.868;10.728;2022-09-21T07:36:07;10.00;99.90
70368;DHT22;57789;53.868;10.728;2022-09-21T07:38:38;10.20;99.90
70368;DHT22;57789;53.868;10.728;2022-09-21T07:41:06;10.40;99.90
70368;DHT22;57789;53.868;10.728;2022-09-21T07:43:32;10.50;99.90
70368;DHT22;57789;53.868;10.728;2022-09-21T07:45:58;10.60;99.90
70368;DHT22;57789;53.868;10.728;2022-09-21T07:48:26;10.70;99.90
70368;DHT22;57789;53.868;10.728;2022-09-21T07:50:53;10.80;99.90
70368;DHT22;57789;53.868;10.728;2022-09-21T07:53:19;11.00;99.90
70368;DHT22;57789;53.868;10.728;2022-09-21T07:55:45;11.00;99.90
70368;DHT22;57789;53.868;10.728;2022-09-21T07:58:11;11.10;99.90
70368;DHT22;57789;53.868;10.728;2022-09-21T08:00:55;11.20;99.90
70368;DHT22;57789;53.868;10.728;2022-09-21T08:03:20;11.30;99.90
70368;DHT22;57789;53.868;10.728;2022-09-21T08:05:46;11.40;99.90
70368;DHT22;57789;53.868;10.728;2022-09-21T08:08:12;11.50;99.90
70368;DHT22;57789;53.868;10.728;2022-09-21T08:10:37;11.70;99.90
70368;DHT22;57789;53.868;10.728;2022-09-21T08:13:04;11.70;99.90
70368;DHT22;57789;53.868;10.728;2022-09-21T08:15:29;11.90;99.90
70368;DHT22;57789;53.868;10.728;2022-09-21T08:17:55;12.00;99.90
70368;DHT22;57789;53.868;10.728;2022-09-21T08:20:23;12.20;99.90
70368;DHT22;57789;53.868;10.728;2022-09-21T08:22:49;12.30;99.90
70368;DHT22;57789;53.868;10.728;2022-09-21T08:25:15;12.30;99.90
70368;DHT22;57789;53.868;10.728;2022-09-21T08:27:41;12.50;99.90
70368;DHT22;57789;53.868;10.728;2022-09-21T08:30:08;12.50;99.90
70368;DHT22;57789;53.868;10.728;2022-09-21T08:32:33;12.70;99.90
70368;DHT22;57789;53.868;10.728;2022-09-21T08:34:59;12.70;99.90
70368;DHT22;57789;53.868;10.728;2022-09-21T08:37:25;12.90;99.90
70368;DHT22;57789;53.868;10.728;2022-09-21T08:39:50;12.90;99.90
70368;DHT22;57789;53.868;10.728;2022-09-21T08:44:53;13.10;99.90
70368;DHT22;57789;53.868;10.728;2022-09-21T08:47:31;13.30;99.90
70368;DHT22;57789;53.868;10.728;2022-09-21T08:50:02;13.40;99.90
70368;DHT22;57789;53.868;10.728;2022-09-21T08:52:30;13.50;99.90
70368;DHT22;57789;53.868;10.728;2022-09-21T08:55:03;13.60;99.90
70368;DHT22;57789;53.868;10.728;2022-09-21T08:57:32;13.60;99.90
70368;DHT22;57789;53.868;10.728;2022-09-21T09:00:00;13.70;99.90
70368;DHT22;57789;53.868;10.728;2022-09-21T09:08:13;13.90;99.90
70368;DHT22;57789;53.868;10.728;2022-09-21T09:16:43;14.10;99.90
70368;DHT22;57789;53.868;10.728;2022-09-21T09:22:05;14.20;99.90
70368;DHT22;57789;53.868;10.728;2022-09-21T09:24:40;14.10;99.90
70368;DHT22;57789;53.868;10.728;2022-09-21T09:27:19;14.10;99.90
70368;DHT22;57789;53.868;10.728;2022-09-21T09:32:18;14.20;99.90
70368;DHT22;57789;53.868;10.728;2022-09-21T09:35:04;14.30;99.90
70368;DHT22;57789;53.868;10.728;2022-09-21T09:37:35;14.40;99.90
70368;DHT22;57789;53.868;10.728;2022-09-21T09:40:05;14.60;99.90
70368;DHT22;57789;53.868;10.728;2022-09-21T09:45:16;15.00;99.90
70368;DHT22;57789;53.868;10.728;2022-09-21T09:48:23;15.30;99.90
70368;DHT22;57789;53.868;10.728;2022-09-21T09:50:51;15.60;99.90
70368;DHT22;57789;53.868;10.728;2022-09-21T09:53:23;16.10;99.90
70368;DHT22;57789;53.868;10.728;2022-09-21T09:55:52;16.30;99.90
70368;DHT22;57789;53.868;10.728;2022-09-21T09:58:40;16.10;99.90
70368;DHT22;57789;53.868;10.728;2022-09-21T10:01:07;15.90;99.90
70368;DHT22;57789;53.868;10.728;2022-09-21T10:03:33;15.80;99.90
70368;DHT22;57789;53.868;10.728;2022-09-21T10:05:58;15.70;99.90
70368;DHT22;57789;53.868;10.728;2022-09-21T10:08:30;15.60;99.90
70368;DHT22;57789;53.868;10.728;2022-09-21T10:10:56;15.60;99.90
70368;DHT22;57789;53.868;10.728;2022-09-21T10:13:28;15.60;99.90
70368;DHT22;57789;53.868;10.728;2022-09-21T10:16:05;15.50;99.90
70368;DHT22;57789;53.868;10.728;2022-09-21T10:18:51;15.50;99.90
70368;DHT22;57789;53.868;10.728;2022-09-21T10:21:24;15.50;99.90
70368;DHT22;57789;53.868;10.728;2022-09-21T10:23:58;15.50;99.90
70368;DHT22;57789;53.868;10.728;2022-09-21T10:26:37;15.50;99.90
70368;DHT22;57789;53.868;10.728;2022-09-21T10:32:17;15.40;99.90
70368;DHT22;57789;53.868;10.728;2022-09-21T10:37:44;15.50;99.90
70368;DHT22;57789;53.868;10.728;2022-09-21T10:42:45;15.50;99.90
70368;DHT22;57789;53.868;10.728;2022-09-21T10:47:52;15.60;99.90
70368;DHT22;57789;53.868;10.728;2022-09-21T10:52:57;15.80;99.90
70368;DHT22;57789;53.868;10.728;2022-09-21T10:55:25;15.80;99.90
70368;DHT22;57789;53.868;10.728;2022-09-21T10:57:53;15.90;99.90
70368;DHT22;57789;53.868;10.728;2022-09-21T11:02:54;15.90;99.90
70368;DHT22;57789;53.868;10.728;2022-09-21T11:05:24;16.00;99.90
70368;DHT22;57789;53.868;10.728;2022-09-21T11:08:14;15.90;99.90
70368;DHT22;57789;53.868;10.728;2022-09-21T11:11:01;16.10;99.90
70368;DHT22;57789;53.868;10.728;2022-09-21T11:13:37;16.30;99.90
70368;DHT22;57789;53.868;10.728;2022-09-21T11:18:36;17.40;99.90
70368;DHT22;57789;53.868;10.728;2022-09-21T11:21:12;17.70;99.40
70368;DHT22;57789;53.868;10.728;2022-09-21T11:23:46;18.20;99.40
70368;DHT22;57789;53.868;10.728;2022-09-21T11:26:43;18.30;98.00
70368;DHT22;57789;53.868;10.728;2022-09-21T11:29:16;17.90;97.20
70368;DHT22;57789;53.868;10.728;2022-09-21T11:37:42;17.50;97.70
70368;DHT22;57789;53.868;10.728;2022-09-21T11:48:54;16.70;97.20
70368;DHT22;57789;53.868;10.728;2022-09-21T11:52:09;16.60;97.70
70368;DHT22;57789;53.868;10.728;2022-09-21T11:55:04;16.60;98.10
70368;DHT22;57789;53.868;10.728;2022-09-21T11:57:40;16.50;98.20
70368;DHT22;57789;53.868;10.728;2022-09-21T12:00:18;16.50;98.30
70368;DHT22;57789;53.868;10.728;2022-09-21T12:09:00;16.30;98.30
70368;DHT22;57789;53.868;10.728;2022-09-21T12:19:11;16.40;99.50
70368;DHT22;57789;53.868;10.728;2022-09-21T12:21:46;16.40;99.90
70368;DHT22;57789;53.868;10.728;2022-09-21T12:29:50;16.70;99.90
70368;DHT22;57789;53.868;10.728;2022-09-21T12:37:58;16.70;99.90
70368;DHT22;57789;53.868;10.728;2022-09-21T12:40:41;16.70;99.90
70368;DHT22;57789;53.868;10.728;2022-09-21T12:43:13;16.80;99.90
70368;DHT22;57789;53.868;10.728;2022-09-21T12:45:45;16.90;99.90
70368;DHT22;57789;53.868;10.728;2022-09-21T12:50:56;17.00;98.50
70368;DHT22;57789;53.868;10.728;2022-09-21T12:53:28;17.20;99.70
70368;DHT22;57789;53.868;10.728;2022-09-21T12:59:00;17.20;99.90
70368;DHT22;57789;53.868;10.728;2022-09-21T13:02:13;17.30;98.70
70368;DHT22;57789;53.868;10.728;2022-09-21T13:07:16;17.60;98.00
70368;DHT22;57789;53.868;10.728;2022-09-21T13:09:47;17.80;97.90
70368;DHT22;57789;53.868;10.728;2022-09-21T13:12:20;18.00;97.80
70368;DHT22;57789;53.868;10.728;2022-09-21T13:14:51;18.10;96.80
70368;DHT22;57789;53.868;10.728;2022-09-21T13:17:23;18.20;97.30
70368;DHT22;57789;53.868;10.728;2022-09-21T13:20:01;18.40;97.50
70368;DHT22;57789;53.868;10.728;2022-09-21T13:22:33;18.40;96.70
70368;DHT22;57789;53.868;10.728;2022-09-21T13:28:02;18.80;96.30
70368;DHT22;57789;53.868;10.728;2022-09-21T13:30:46;19.20;96.50
70368;DHT22;57789;53.868;10.728;2022-09-21T13:49:12;19.60;95.00
70368;DHT22;57789;53.868;10.728;2022-09-21T13:57:29;18.60;96.50
70368;DHT22;57789;53.868;10.728;2022-09-21T14:02:44;18.00;98.80
70368;DHT22;57789;53.868;10.728;2022-09-21T14:05:24;17.70;99.30
70368;DHT22;57789;53.868;10.728;2022-09-21T14:08:16;17.60;99.90
70368;DHT22;57789;53.868;10.728;2022-09-21T14:11:05;17.60;99.90
70368;DHT22;57789;53.868;10.728;2022-09-21T14:13:44;17.90;99.90
70368;DHT22;57789;53.868;10.728;2022-09-21T14:24:47;18.50;97.00
70368;DHT22;57789;53.868;10.728;2022-09-21T14:28:03;18.70;97.00
70368;DHT22;57789;53.868;10.728;2022-09-21T14:30:26;18.80;96.20
70368;DHT22;57789;53.868;10.728;2022-09-21T14:35:35;19.00;95.40
70368;DHT22;57789;53.868;10.728;2022-09-21T14:38:34;19.00;95.50
70368;DHT22;57789;53.868;10.728;2022-09-21T14:41:05;19.00;96.30
70368;DHT22;57789;53.868;10.728;2022-09-21T14:43:34;19.10;97.00
70368;DHT22;57789;53.868;10.728;2022-09-21T14:49:23;20.00;95.90
70368;DHT22;57789;53.868;10.728;2022-09-21T14:52:28;20.20;95.30
70368;DHT22;57789;53.868;10.728;2022-09-21T15:10:24;22.20;84.60
70368;DHT22;57789;53.868;10.728;2022-09-21T15:18:47;22.50;78.10
70368;DHT22;57789;53.868;10.728;2022-09-21T15:21:21;22.40;77.60
70368;DHT22;57789;53.868;10.728;2022-09-21T15:23:47;22.30;77.30
70368;DHT22;57789;53.868;10.728;2022-09-21T15:26:22;22.20;76.80
70368;DHT22;57789;53.868;10.728;2022-09-21T15:29:03;22.00;76.80
70368;DHT22;57789;53.868;10.728;2022-09-21T15:31:39;21.90;85.30
70368;DHT22;57789;53.868;10.728;2022-09-21T15:34:07;20.70;89.40
70368;DHT22;57789;53.868;10.728;2022-09-21T15:36:38;20.30;91.10
70368;DHT22;57789;53.868;10.728;2022-09-21T15:39:05;20.40;92.10
70368;DHT22;57789;53.868;10.728;2022-09-21T15:44:11;20.00;93.40
70368;DHT22;57789;53.868;10.728;2022-09-21T15:46:37;19.80;94.30
70368;DHT22;57789;53.868;10.728;2022-09-21T15:49:10;19.70;95.00
70368;DHT22;57789;53.868;10.728;2022-09-21T15:51:39;19.60;95.70
70368;DHT22;57789;53.868;10.728;2022-09-21T15:56:45;19.40;96.60
70368;DHT22;57789;53.868;10.728;2022-09-21T15:59:18;19.30;96.40
70368;DHT22;57789;53.868;10.728;2022-09-21T16:01:51;19.00;96.60
70368;DHT22;57789;53.868;10.728;2022-09-21T16:04:23;18.80;97.50
70368;DHT22;57789;53.868;10.728;2022-09-21T16:07:05;18.60;97.70
70368;DHT22;57789;53.868;10.728;2022-09-21T16:09:57;18.40;98.50
70368;DHT22;57789;53.868;10.728;2022-09-21T16:12:42;18.20;99.90
70368;DHT22;57789;53.868;10.728;2022-09-21T16:15:21;18.00;99.90
70368;DHT22;57789;53.868;10.728;2022-09-21T16:18:00;17.90;99.90
70368;DHT22;57789;53.868;10.728;2022-09-21T16:23:08;17.60;99.90
70368;DHT22;57789;53.868;10.728;2022-09-21T16:25:35;17.40;99.90
70368;DHT22;57789;53.868;10.728;2022-09-21T16:30:50;17.00;99.90
70368;DHT22;57789;53.868;10.728;2022-09-21T16:33:43;16.90;99.90
70368;DHT22;57789;53.868;10.728;2022-09-21T16:39:00;16.40;99.90
70368;DHT22;57789;53.868;10.728;2022-09-21T16:41:35;16.10;99.90
70368;DHT22;57789;53.868;10.728;2022-09-21T16:44:02;16.00;99.90
70368;DHT22;57789;53.868;10.728;2022-09-21T16:46:28;16.00;99.90
70368;DHT22;57789;53.868;10.728;2022-09-21T16:48:56;15.90;99.90
70368;DHT22;57789;53.868;10.728;2022-09-21T16:51:22;15.80;99.90
70368;DHT22;57789;53.868;10.728;2022-09-21T16:53:56;15.70;99.90
70368;DHT22;57789;53.868;10.728;2022-09-21T16:56:22;15.60;99.90
70368;DHT22;57789;53.868;10.728;2022-09-21T16:58:48;15.50;99.90
70368;DHT22;57789;53.868;10.728;2022-09-21T17:01:16;15.40;99.90
70368;DHT22;57789;53.868;10.728;2022-09-21T17:03:43;15.40;99.90
70368;DHT22;57789;53.868;10.728;2022-09-21T17:06:16;15.30;99.90
70368;DHT22;57789;53.868;10.728;2022-09-21T17:08:43;15.10;99.90
70368;DHT22;57789;53.868;10.728;2022-09-21T17:11:15;14.90;99.90
70368;DHT22;57789;53.868;10.728;2022-09-21T17:13:50;14.90;99.90
70368;DHT22;57789;53.868;10.728;2022-09-21T17:16:17;14.80;99.90
70368;DHT22;57789;53.868;10.728;2022-09-21T17:18:47;14.60;99.90
70368;DHT22;57789;53.868;10.728;2022-09-21T17:21:14;14.50;99.90
70368;DHT22;57789;53.868;10.728;2022-09-21T17:23:40;14.30;99.90
70368;DHT22;57789;53.868;10.728;2022-09-21T17:26:14;14.20;99.90
70368;DHT22;57789;53.868;10.728;2022-09-21T17:28:42;13.90;99.90
70368;DHT22;57789;53.868;10.728;2022-09-21T17:31:12;13.80;99.90
70368;DHT22;57789;53.868;10.728;2022-09-21T17:33:39;13.80;99.90
70368;DHT22;57789;53.868;10.728;2022-09-21T17:36:06;13.70;99.90
70368;DHT22;57789;53.868;10.728;2022-09-21T17:38:35;13.80;99.90
70368;DHT22;57789;53.868;10.728;2022-09-21T17:41:05;13.80;99.90
70368;DHT22;57789;53.868;10.728;2022-09-21T17:43:38;13.80;99.90
70368;DHT22;57789;53.868;10.728;2022-09-21T17:46:26;13.90;99.90
70368;DHT22;57789;53.868;10.728;2022-09-21T17:48:56;13.80;99.90
70368;DHT22;57789;53.868;10.728;2022-09-21T17:51:25;13.60;99.90
70368;DHT22;57789;53.868;10.728;2022-09-21T17:54:09;13.70;99.90
70368;DHT22;57789;53.868;10.728;2022-09-21T17:56:46;13.60;99.90
70368;DHT22;57789;53.868;10.728;2022-09-21T17:59:31;13.50;99.90
70368;DHT22;57789;53.868;10.728;2022-09-21T18:01:58;13.60;99.90
70368;DHT22;57789;53.868;10.728;2022-09-21T18:04:29;13.60;99.90
70368;DHT22;57789;53.868;10.728;2022-09-21T18:06:57;13.60;99.90
70368;DHT22;57789;53.868;10.728;2022-09-21T18:09:23;13.60;99.90
70368;DHT22;57789;53.868;10.728;2022-09-21T18:14:52;13.50;99.90
70368;DHT22;57789;53.868;10.728;2022-09-21T18:18:30;13.30;99.90
70368;DHT22;57789;53.868;10.728;2022-09-21T18:20:54;13.20;99.90
70368;DHT22;57789;53.868;10.728;2022-09-21T18:26:19;13.20;99.90
70368;DHT22;57789;53.868;10.728;2022-09-21T18:28:48;13.20;99.90
70368;DHT22;57789;53.868;10.728;2022-09-21T18:35:10;13.20;99.90
70368;DHT22;57789;53.868;10.728;2022-09-21T18:37:59;13.10;99.90
70368;DHT22;57789;53.868;10.728;2022-09-21T18:47:19;13.10;99.90
70368;DHT22;57789;53.868;10.728;2022-09-21T18:55:23;12.70;99.90
70368;DHT22;57789;53.868;10.728;2022-09-21T18:57:56;12.70;99.90
70368;DHT22;57789;53.868;10.728;2022-09-21T19:00:26;12.80;99.90
70368;DHT22;57789;53.868;10.728;2022-09-21T19:03:04;12.80;99.90
70368;DHT22;57789;53.868;10.728;2022-09-21T19:05:31;12.80;99.90
70368;DHT22;57789;53.868;10.728;2022-09-21T19:08:18;12.70;99.90
70368;DHT22;57789;53.868;10.728;2022-09-21T19:10:53;12.70;99.90
70368;DHT22;57789;53.868;10.728;2022-09-21T19:13:41;12.60;99.90
70368;DHT22;57789;53.868;10.728;2022-09-21T19:16:30;12.70;99.90
70368;DHT22;57789;53.868;10.728;2022-09-21T19:24:51;12.60;99.90
70368;DHT22;57789;53.868;10.728;2022-09-21T19:27:36;12.70;99.90
70368;DHT22;57789;53.868;10.728;2022-09-21T19:30:06;12.80;99.90
70368;DHT22;57789;53.868;10.728;2022-09-21T19:32:50;12.90;99.90
70368;DHT22;57789;53.868;10.728;2022-09-21T19:35:26;12.80;99.90
70368;DHT22;57789;53.868;10.728;2022-09-21T19:37:57;12.90;99.90
70368;DHT22;57789;53.868;10.728;2022-09-21T19:40:29;12.90;99.90
70368;DHT22;57789;53.868;10.728;2022-09-21T19:43:22;12.90;99.90
70368;DHT22;57789;53.868;10.728;2022-09-21T19:46:26;12.90;99.90
70368;DHT22;57789;53.868;10.728;2022-09-21T19:49:21;13.00;99.90